Mine Run, Virginia
Current Conditions -  °F | °C
As of 8:16 AM on Thursday 18 Dec 2014 (Local Time) from KCJR Reporting Station
Clear Clear  
Wind Chill: 27°   Ceiling: Unl
Heat Index: 27°   Visibility: 10mi
Dew Point: 21°   Wind: 3mph
Humidity: 80%   Direction: 330°NNW
Pressure: 30.17"   Gusts: NA
Location:  38.33°N, 77.77°W
Report Text: KCJR 181316Z AUTO 33003KT 10SM CLR M03/M06 A3017 RMK AO2 TSNO
Loading
Personal Weather Stations






























Interactive Weather Map New forecast layout! Learn more

10-Day Weather Forecast

Advertisements
Track Severe Weather on mobile